createdAt,value
2022-10-09T00:01:17.434Z,8.10
2022-10-09T00:06:11.961Z,8.10
2022-10-09T00:11:13.890Z,8.00
2022-10-09T00:16:10.836Z,7.90
2022-10-09T00:21:03.951Z,7.80
2022-10-09T00:26:01.196Z,7.80
2022-10-09T00:30:54.292Z,7.70
2022-10-09T00:35:46.985Z,7.60
2022-10-09T00:40:39.727Z,7.70
2022-10-09T00:45:32.274Z,7.60
2022-10-09T00:50:38.451Z,7.50
2022-10-09T00:55:32.396Z,7.40
2022-10-09T01:00:25.059Z,7.40
2022-10-09T01:05:17.531Z,7.40
2022-10-09T01:10:10.336Z,7.20
2022-10-09T01:15:29.223Z,7.10
2022-10-09T01:20:25.257Z,7.00
2022-10-09T01:25:28.408Z,7.00
2022-10-09T01:30:20.620Z,6.80
2022-10-09T01:35:14.864Z,6.80
2022-10-09T01:40:08.503Z,6.90
2022-10-09T01:45:00.686Z,6.70
2022-10-09T01:50:02.117Z,6.70
2022-10-09T01:55:00.092Z,6.60
2022-10-09T01:59:53.763Z,6.60
2022-10-09T02:05:04.654Z,6.50
2022-10-09T02:09:58.701Z,6.40
2022-10-09T02:14:51.619Z,6.30
2022-10-09T02:19:55.442Z,6.40
2022-10-09T02:25:07.185Z,6.30
2022-10-09T02:36:17.033Z,6.10
2022-10-09T02:41:13.046Z,6.10
2022-10-09T02:46:09.889Z,6.10
2022-10-09T02:51:09.831Z,6.10
2022-10-09T02:56:07.457Z,6.00
2022-10-09T03:13:50.859Z,6.00
2022-10-09T03:25:08.230Z,5.90
2022-10-09T03:36:17.110Z,5.80
2022-10-09T04:02:59.034Z,5.70
2022-10-09T04:32:19.953Z,5.50
2022-10-09T04:37:12.203Z,5.60
2022-10-09T04:42:04.811Z,5.70
2022-10-09T04:46:57.186Z,5.70
2022-10-09T04:51:49.682Z,5.80
2022-10-09T04:56:42.306Z,5.70
2022-10-09T05:14:03.334Z,5.60
2022-10-09T06:25:23.126Z,7.30
2022-10-09T06:30:41.125Z,7.50
2022-10-09T06:41:15.572Z,7.90
2022-10-09T06:46:17.685Z,8.10
2022-10-09T06:51:20.922Z,8.20
2022-10-09T06:56:22.362Z,8.40
2022-10-09T07:01:48.340Z,8.80
2022-10-09T07:06:48.673Z,10.90
2022-10-09T07:11:59.287Z,12.30
2022-10-09T07:17:06.040Z,12.70
2022-10-09T07:22:26.184Z,13.10
2022-10-09T07:27:40.289Z,14.20
2022-10-09T07:32:42.335Z,17.40
2022-10-09T07:37:51.293Z,20.70
2022-10-09T07:42:50.530Z,19.40
2022-10-09T07:47:49.376Z,16.50
2022-10-09T07:52:57.107Z,17.50
2022-10-09T07:57:55.773Z,19.50
2022-10-09T08:03:00.345Z,20.00
2022-10-09T08:08:05.263Z,17.40
2022-10-09T08:13:02.023Z,14.90
2022-10-09T08:18:05.629Z,13.90
2022-10-09T08:22:58.788Z,13.80
2022-10-09T08:28:02.550Z,13.50
2022-10-09T08:33:01.877Z,13.40
2022-10-09T08:37:56.224Z,13.30
2022-10-09T08:43:03.875Z,13.20
2022-10-09T08:48:11.149Z,13.80
2022-10-09T08:53:25.505Z,14.50
2022-10-09T08:58:23.324Z,16.00
2022-10-09T09:03:25.572Z,20.00
2022-10-09T09:09:05.119Z,22.20
2022-10-09T09:14:06.410Z,20.20
2022-10-09T09:24:46.844Z,17.90
2022-10-09T09:29:58.074Z,17.30
2022-10-09T09:34:54.580Z,19.60
2022-10-09T09:40:34.876Z,24.70
2022-10-09T09:45:05.945Z,27.70
2022-10-09T09:50:01.761Z,29.80
2022-10-09T10:00:28.722Z,30.90
2022-10-09T10:05:38.357Z,29.80
2022-10-09T10:10:43.548Z,30.90
2022-10-09T10:15:38.148Z,30.60
2022-10-09T10:20:45.412Z,31.50
2022-10-09T10:25:44.964Z,30.40
2022-10-09T10:31:02.559Z,32.00
2022-10-09T10:35:59.940Z,32.50
2022-10-09T10:46:33.240Z,32.00
2022-10-09T10:51:43.611Z,32.20
2022-10-09T11:20:41.748Z,29.50
2022-10-09T11:26:09.536Z,28.40
2022-10-09T11:31:47.145Z,28.60
2022-10-09T11:49:57.940Z,23.50
2022-10-09T11:55:38.772Z,21.50
2022-10-09T12:00:40.386Z,19.70
2022-10-09T12:06:02.544Z,18.60
2022-10-09T12:17:13.743Z,17.60
2022-10-09T12:23:14.259Z,17.60
2022-10-09T12:28:34.065Z,17.70
2022-10-09T12:51:24.903Z,17.40
2022-10-09T12:56:34.436Z,17.20
2022-10-09T13:01:38.294Z,17.20
2022-10-09T13:06:52.182Z,17.10
2022-10-09T13:11:46.200Z,17.20
2022-10-09T13:17:26.301Z,17.20
2022-10-09T13:23:05.729Z,17.20
2022-10-09T13:43:32.610Z,17.20
2022-10-09T13:48:32.494Z,17.30
2022-10-09T13:53:32.862Z,17.10
2022-10-09T13:58:30.001Z,16.90
2022-10-09T14:03:25.239Z,16.90
2022-10-09T14:08:20.754Z,17.00
2022-10-09T14:25:23.432Z,16.90
2022-10-09T14:30:21.502Z,16.70
2022-10-09T14:35:19.371Z,16.70
2022-10-09T14:40:13.865Z,16.70
2022-10-09T14:45:12.439Z,16.70
2022-10-09T14:50:09.072Z,16.70
2022-10-09T14:55:05.917Z,16.70
2022-10-09T15:00:01.371Z,16.60
2022-10-09T15:04:56.698Z,16.60
2022-10-09T15:10:00.799Z,16.50
2022-10-09T15:14:53.669Z,16.40
2022-10-09T15:19:48.746Z,16.40
2022-10-09T15:24:47.246Z,16.30
2022-10-09T15:29:41.677Z,16.20
2022-10-09T15:34:41.325Z,16.10
2022-10-09T15:39:34.528Z,15.90
2022-10-09T15:44:37.236Z,15.80
2022-10-09T15:49:30.783Z,15.60
2022-10-09T15:54:34.713Z,15.50
2022-10-09T15:59:27.245Z,15.40
2022-10-09T16:04:21.778Z,15.30
2022-10-09T16:09:16.406Z,15.20
2022-10-09T16:14:16.453Z,14.90
2022-10-09T16:19:13.686Z,14.70
2022-10-09T16:24:07.598Z,14.40
2022-10-09T16:29:05.599Z,14.10
2022-10-09T16:33:59.106Z,14.00
2022-10-09T16:38:59.527Z,14.00
2022-10-09T16:44:00.034Z,13.90
2022-10-09T16:49:04.695Z,13.60
2022-10-09T16:54:16.379Z,13.50
2022-10-09T16:59:13.968Z,13.20
2022-10-09T17:04:12.447Z,13.00
2022-10-09T17:09:14.251Z,13.00
2022-10-09T17:14:08.740Z,12.90
2022-10-09T17:19:07.232Z,12.90
2022-10-09T17:24:07.158Z,12.80
2022-10-09T17:29:05.531Z,12.80
2022-10-09T17:34:01.291Z,12.60
2022-10-09T17:38:57.301Z,12.60
2022-10-09T17:43:52.145Z,12.40
2022-10-09T17:48:50.221Z,12.30
2022-10-09T17:53:54.367Z,12.10
2022-10-09T17:58:58.625Z,11.90
2022-10-09T18:03:53.222Z,11.70
2022-10-09T18:08:46.816Z,11.60
2022-10-09T18:13:49.782Z,11.60
2022-10-09T18:18:45.739Z,11.50
2022-10-09T18:23:41.274Z,11.30
2022-10-09T18:28:39.040Z,11.20
2022-10-09T18:33:34.613Z,10.90
2022-10-09T18:38:27.330Z,10.70
2022-10-09T18:43:20.590Z,10.50
2022-10-09T18:48:20.571Z,10.30
2022-10-09T18:53:19.747Z,10.20
2022-10-09T18:58:24.903Z,10.00
2022-10-09T19:03:18.782Z,9.90
2022-10-09T19:08:19.686Z,9.90
2022-10-09T19:13:18.323Z,9.80
2022-10-09T19:18:15.469Z,9.70
2022-10-09T19:23:23.306Z,9.50
2022-10-09T19:28:17.203Z,9.30
2022-10-09T19:33:11.552Z,9.20
2022-10-09T19:38:06.946Z,9.10
2022-10-09T19:43:04.917Z,9.00
2022-10-09T19:48:00.022Z,8.90
2022-10-09T19:52:53.917Z,8.90
2022-10-09T20:10:15.924Z,8.60
2022-10-09T20:15:09.183Z,8.50
2022-10-09T20:20:05.805Z,8.40
2022-10-09T20:25:02.748Z,8.40
2022-10-09T20:30:04.926Z,8.50
2022-10-09T20:35:03.075Z,8.30
2022-10-09T20:39:55.709Z,8.20
2022-10-09T20:44:49.405Z,8.10
2022-10-09T20:49:43.835Z,8.00
2022-10-09T21:00:14.344Z,7.90
2022-10-09T21:05:16.163Z,7.80
2022-10-09T21:10:09.247Z,7.90
2022-10-09T21:15:12.922Z,7.80
2022-10-09T21:20:06.075Z,7.80
2022-10-09T21:24:58.871Z,7.80
2022-10-09T21:29:51.254Z,7.70
2022-10-09T21:34:43.665Z,7.60
2022-10-09T21:39:36.414Z,7.60
2022-10-09T21:44:29.507Z,7.50
2022-10-09T21:50:18.351Z,7.40
2022-10-09T21:56:26.213Z,7.30
2022-10-09T22:02:33.914Z,7.30
2022-10-09T22:08:42.101Z,7.30
2022-10-09T22:15:10.290Z,7.10
2022-10-09T22:21:19.650Z,6.90
2022-10-09T22:27:29.998Z,6.90
2022-10-09T22:33:42.013Z,7.00
2022-10-09T22:57:32.239Z,7.00
2022-10-09T23:03:43.118Z,7.70
2022-10-09T23:10:02.527Z,8.40
2022-10-09T23:22:29.544Z,9.40
2022-10-09T23:28:37.663Z,9.70
2022-10-09T23:34:46.354Z,10.00
2022-10-09T23:40:57.658Z,10.20
2022-10-09T23:47:06.395Z,10.40
2022-10-09T23:52:17.711Z,10.30
2022-10-09T23:57:10.129Z,10.40
